Time;durP1;ratioP1;P1;durP2;ratioP2;P2;SDS_P1;SDS_P2;PMS_P1;PMS_P2;Temp;Humidity;BMP_temperature;BMP_pressure;BME280_temperature;BME280_humidity;BME280_pressure;Samples;Min_cycle;Max_cycle;Signal;HPM_P1;HPM_P2
2022/05/12 00:02:03;;;;;;;13.40;10.90;;;;;;;9.58;81.36;97695.03;110009;1250;70781;-68
2022/05/12 00:04:37;;;;;;;13.10;10.50;;;;;;;9.60;81.49;97694.33;110191;1250;68557;-69
2022/05/12 00:07:07;;;;;;;14.50;10.80;;;;;;;9.63;81.07;97692.89;109999;1251;69157;-69
2022/05/12 00:09:37;;;;;;;13.20;11.70;;;;;;;9.65;81.45;97692.98;110126;1250;59672;-68
2022/05/12 00:12:07;;;;;;;;;;;;;;;9.64;80.37;97691.09;110214;1250;59738;-69
2022/05/12 00:14:37;;;;;;;13.20;10.00;;;;;;;9.63;81.10;97690.80;109798;1251;70944;-71
2022/05/12 00:17:06;;;;;;;;;;;;;;;9.64;79.25;97690.27;110007;1249;67639;-69
2022/05/12 00:19:36;;;;;;;12.50;9.50;;;;;;;9.64;77.85;97691.08;109944;1250;69437;-68
2022/05/12 00:22:06;;;;;;;11.40;9.40;;;;;;;9.69;80.66;97695.66;110059;1251;59831;-68
2022/05/12 00:24:36;;;;;;;12.30;10.60;;;;;;;9.70;80.90;97694.88;109934;1251;59723;-70
2022/05/12 00:27:07;;;;;;;14.20;11.20;;;;;;;9.69;80.91;97700.22;110040;1251;71537;-68
2022/05/12 00:29:37;;;;;;;13.60;11.10;;;;;;;9.64;80.88;97701.54;109972;1249;68517;-68
2022/05/12 00:32:07;;;;;;;13.80;11.20;;;;;;;9.58;79.65;97701.24;109866;1251;68672;-69
2022/05/12 00:34:37;;;;;;;;;;;;;;;9.44;81.13;97707.19;109743;1253;59647;-68
2022/05/12 00:37:08;;;;;;;20.10;13.70;;;;;;;9.32;80.85;97708.67;110006;1251;60129;-69
2022/05/12 00:39:38;;;;;;;15.50;11.70;;;;;;;9.13;80.75;97707.37;110010;1251;71551;-68
2022/05/12 00:42:09;;;;;;;15.20;10.90;;;;;;;9.00;81.92;97707.33;110179;1250;67837;-69
2022/05/12 00:44:38;;;;;;;14.50;11.80;;;;;;;8.95;81.63;97712.17;110168;1250;69379;-69
2022/05/12 00:47:08;;;;;;;13.00;10.00;;;;;;;8.92;81.18;97710.83;110196;1250;59669;-70
2022/05/12 00:49:41;;;;;;;13.80;10.70;;;;;;;8.88;80.19;97711.71;109910;1250;59693;-71
2022/05/12 00:52:14;;;;;;;15.50;13.40;;;;;;;8.86;81.99;97712.02;109997;1250;70582;-69
2022/05/12 00:55:04;;;;;;;14.90;12.80;;;;;;;8.81;80.48;97710.27;110189;1250;68680;-69
2022/05/12 00:57:43;;;;;;;12.80;9.70;;;;;;;8.75;82.75;97709.58;110173;1250;69387;-69
2022/05/12 01:00:15;;;;;;;15.00;10.00;;;;;;;8.72;82.47;97705.98;109883;1251;59721;-70
2022/05/12 01:02:49;;;;;;;15.30;10.40;;;;;;;8.70;81.38;97708.17;109824;1251;59664;-70
2022/05/12 01:05:22;;;;;;;18.60;14.30;;;;;;;8.70;83.58;97710.73;109925;1251;70691;-69
2022/05/12 01:07:55;;;;;;;15.10;13.40;;;;;;;8.71;82.43;97708.77;109909;1251;68502;-69
2022/05/12 01:10:29;;;;;;;15.90;12.00;;;;;;;8.74;83.74;97711.92;110025;1250;69267;-70
2022/05/12 01:12:59;;;;;;;14.10;10.80;;;;;;;8.76;84.16;97711.41;109951;1250;59686;-68
2022/05/12 01:15:29;;;;;;;17.50;13.50;;;;;;;8.77;82.85;97710.66;110171;1250;59664;-68
2022/05/12 01:18:17;;;;;;;14.70;12.80;;;;;;;8.78;83.21;97711.48;110035;1250;70934;-69
2022/05/12 01:20:50;;;;;;;15.80;12.40;;;;;;;8.77;82.37;97713.06;110075;1250;68561;-69
2022/05/12 01:23:32;;;;;;;16.60;11.80;;;;;;;8.78;84.33;97714.09;110026;1251;68612;-68
2022/05/12 01:26:11;;;;;;;15.40;11.70;;;;;;;8.77;82.10;97713.10;109918;1251;59748;-69
2022/05/12 01:28:40;;;;;;;11.70;9.90;;;;;;;8.74;80.66;97708.09;109832;1251;59687;-68
2022/05/12 01:31:15;;;;;;;15.00;10.70;;;;;;;8.70;79.68;97712.13;109953;1250;70533;-68
2022/05/12 01:33:45;;;;;;;16.10;12.70;;;;;;;8.66;82.22;97712.92;110224;1250;68529;-69
2022/05/12 01:36:16;;;;;;;15.20;11.00;;;;;;;8.60;82.81;97715.69;110220;1250;68760;-68
2022/05/12 01:38:47;;;;;;;16.80;12.80;;;;;;;8.55;83.83;97717.73;109967;1250;59743;-69
2022/05/12 01:41:17;;;;;;;14.30;11.50;;;;;;;8.50;84.64;97714.75;110025;1248;59690;-69
2022/05/12 01:43:48;;;;;;;13.80;10.80;;;;;;;8.46;85.26;97716.37;109969;1251;71546;-68
2022/05/12 01:46:18;;;;;;;;;;;;;;;8.41;82.21;97717.69;109848;1251;67982;-69
2022/05/12 01:48:48;;;;;;;13.30;10.50;;;;;;;8.36;83.07;97714.85;109774;1250;68637;-68
2022/05/12 01:51:19;;;;;;;16.90;11.70;;;;;;;8.33;84.29;97717.81;109984;1251;59741;-69
2022/05/12 01:53:50;;;;;;;14.20;10.80;;;;;;;8.29;86.30;97720.30;110144;1251;59676;-70
2022/05/12 01:56:19;;;;;;;;;;;;;;;8.25;86.32;97719.29;109795;1251;71546;-69
2022/05/12 01:58:50;;;;;;;17.70;12.70;;;;;;;8.22;87.13;97723.80;110018;1251;67804;-68
2022/05/12 02:01:20;;;;;;;14.80;12.90;;;;;;;8.20;87.56;97721.33;109901;1249;67817;-69
2022/05/12 02:03:49;;;;;;;14.20;11.40;;;;;;;8.18;87.04;97721.61;109928;1251;60108;-70
2022/05/12 02:06:19;;;;;;;16.50;13.30;;;;;;;8.16;86.78;97720.83;110014;1251;59702;-69
2022/05/12 02:08:49;;;;;;;19.10;14.10;;;;;;;8.15;87.50;97725.09;109923;1251;71535;-68
2022/05/12 02:11:20;;;;;;;15.90;13.10;;;;;;;8.12;86.98;97720.56;109821;1253;68528;-67
2022/05/12 02:13:51;;;;;;;16.80;12.00;;;;;;;8.09;87.66;97728.38;109974;1251;68685;-68
2022/05/12 02:16:22;;;;;;;14.10;10.70;;;;;;;8.06;87.10;97727.16;109890;1251;59633;-69
2022/05/12 02:18:55;;;;;;;10.30;9.00;;;;;;;8.04;85.26;97725.91;110018;1250;59745;-69
2022/05/12 02:21:25;;;;;;;12.80;10.90;;;;;;;8.02;83.01;97725.34;109766;1253;71434;-69
2022/05/12 02:23:55;;;;;;;;;;;;;;;8.01;86.23;97727.80;109971;1250;68546;-69
2022/05/12 02:26:26;;;;;;;14.60;11.40;;;;;;;8.00;88.05;97729.28;109927;1250;69382;-69
2022/05/12 02:28:58;;;;;;;14.30;11.70;;;;;;;7.97;88.64;97729.75;109835;1250;59734;-68
2022/05/12 02:31:30;;;;;;;13.50;11.20;;;;;;;7.94;88.57;97730.98;109904;1251;59678;-68
2022/05/12 02:34:01;;;;;;;12.10;10.80;;;;;;;7.91;88.86;97728.02;109973;1251;71541;-68
2022/05/12 02:36:31;;;;;;;16.00;12.70;;;;;;;7.88;89.08;97729.75;109958;1251;68450;-70
2022/05/12 02:39:01;;;;;;;15.10;11.90;;;;;;;7.84;88.84;97731.71;109930;1251;68486;-69
2022/05/12 02:41:31;;;;;;;15.60;12.20;;;;;;;7.81;88.06;97733.30;110012;1250;59695;-68
2022/05/12 02:44:00;;;;;;;16.20;12.50;;;;;;;7.79;87.20;97731.33;109913;1251;60097;-69
2022/05/12 02:46:30;;;;;;;14.50;12.90;;;;;;;7.75;86.45;97736.04;109963;1251;71525;-67
2022/05/12 02:49:01;;;;;;;12.70;10.30;;;;;;;7.74;86.62;97738.56;110017;1250;67736;-68
2022/05/12 02:51:31;;;;;;;16.20;12.30;;;;;;;7.74;88.48;97738.90;109793;1251;69407;-68
2022/05/12 02:54:00;;;;;;;13.80;11.70;;;;;;;7.75;88.34;97740.77;109902;1251;59739;-69
2022/05/12 02:56:31;;;;;;;12.20;8.80;;;;;;;7.78;89.21;97741.66;109940;1251;59782;-68
2022/05/12 02:59:01;;;;;;;11.90;8.90;;;;;;;7.77;86.66;97739.96;109806;1251;71532;-68
2022/05/12 03:01:33;;;;;;;10.60;8.70;;;;;;;7.76;84.90;97739.81;109772;1251;66629;-69
2022/05/12 03:04:04;;;;;;;14.40;12.00;;;;;;;7.75;86.58;97739.52;109725;1251;69400;-69
2022/05/12 03:06:34;;;;;;;12.40;9.50;;;;;;;7.73;87.20;97741.17;109760;1251;59693;-70
2022/05/12 03:09:03;;;;;;;14.80;11.00;;;;;;;7.73;88.07;97740.48;109915;1250;59689;-70
2022/05/12 03:11:33;;;;;;;13.50;10.70;;;;;;;7.73;87.78;97742.58;109835;1251;70739;-70
2022/05/12 03:14:03;;;;;;;12.20;9.20;;;;;;;7.74;87.99;97742.91;109912;1251;68545;-69
2022/05/12 03:16:33;;;;;;;12.00;8.50;;;;;;;7.74;86.94;97746.52;109853;1251;67758;-68
2022/05/12 03:19:02;;;;;;;;;;;;;;;7.75;85.68;97746.42;110019;1251;59753;-69
2022/05/12 03:21:32;;;;;;;11.40;8.80;;;;;;;7.77;84.52;97752.77;109647;1251;59687;-70
2022/05/12 03:24:04;;;;;;;11.00;8.90;;;;;;;7.79;84.69;97757.69;109777;1253;71018;-67
2022/05/12 03:26:33;;;;;;;12.70;10.90;;;;;;;7.82;85.87;97754.56;109832;1251;67861;-68
2022/05/12 03:29:03;;;;;;;13.40;12.00;;;;;;;7.86;87.96;97762.67;109931;1251;69396;-69
2022/05/12 03:31:33;;;;;;;10.90;8.70;;;;;;;7.87;86.79;97761.07;109787;1251;59690;-69
2022/05/12 03:34:03;;;;;;;;;;;;;;;7.90;83.78;97757.05;110067;1251;59738;-69
2022/05/12 03:36:35;;;;;;;11.30;8.80;;;;;;;7.93;83.42;97758.48;109911;1250;70658;-69
2022/05/12 03:39:07;;;;;;;10.90;8.40;;;;;;;7.96;84.15;97765.42;110016;1251;67593;-69
2022/05/12 03:41:37;;;;;;;12.60;10.00;;;;;;;7.99;85.67;97764.73;109978;1251;69432;-69
2022/05/12 03:46:57;;;;;;;14.20;10.90;;;;;;;8.08;88.27;97765.25;110013;1251;59617;-69
2022/05/12 03:49:26;;;;;;;12.40;9.20;;;;;;;8.13;87.94;97766.20;109932;1251;71354;-70
2022/05/12 03:51:55;;;;;;;11.30;9.90;;;;;;;8.19;87.39;97769.83;109944;1251;67535;-66
2022/05/12 03:54:25;;;;;;;11.70;9.20;;;;;;;8.27;86.33;97773.20;110022;1251;68509;-68
2022/05/12 03:56:54;;;;;;;8.70;7.80;;;;;;;8.34;85.65;97771.20;109830;1251;59761;-70
2022/05/12 03:59:24;;;;;;;12.60;9.80;;;;;;;8.42;83.47;97769.04;110008;1251;59741;-70
2022/05/12 04:01:54;;;;;;;9.10;7.40;;;;;;;8.51;84.16;97769.38;110192;1250;70586;-68
2022/05/12 04:04:23;;;;;;;12.50;10.50;;;;;;;8.60;82.98;97770.41;110195;1250;68426;-69
2022/05/12 04:06:52;;;;;;;14.70;11.50;;;;;;;8.71;83.57;97776.88;110134;1250;69221;-68
2022/05/12 04:09:22;;;;;;;15.90;12.30;;;;;;;8.85;85.12;97777.97;109904;1251;59681;-68
2022/05/12 04:11:51;;;;;;;11.60;9.60;;;;;;;8.98;84.16;97774.73;110131;1250;59663;-69
2022/05/12 04:14:21;;;;;;;11.60;8.90;;;;;;;9.18;84.13;97777.01;110044;1250;71619;-68
2022/05/12 04:16:50;;;;;;;11.00;7.80;;;;;;;9.42;83.86;97782.63;110119;1250;68817;-69
2022/05/12 04:19:19;;;;;;;10.10;8.00;;;;;;;9.70;83.42;97778.94;110210;1249;68400;-71
2022/05/12 04:21:49;;;;;;;;;;;;;;;9.97;82.76;97783.34;109880;1251;59696;-69
2022/05/12 04:24:19;;;;;;;10.20;9.10;;;;;;;10.17;81.95;97784.48;109789;1250;59684;-67
2022/05/12 04:26:48;;;;;;;;;;;;;;;10.32;81.39;97785.46;109978;1249;71625;-69
2022/05/12 04:29:17;;;;;;;10.40;7.50;;;;;;;10.43;81.35;97788.75;110170;1250;67647;-69
2022/05/12 04:31:46;;;;;;;10.50;9.40;;;;;;;10.56;81.05;97789.95;110145;1249;68641;-69
2022/05/12 04:37:03;;;;;;;10.10;7.70;;;;;;;10.80;80.22;97787.69;110015;1251;59659;-68
2022/05/12 04:39:33;;;;;;;12.30;10.00;;;;;;;10.93;79.83;97790.96;110120;1250;71525;-69
2022/05/12 04:42:05;;;;;;;11.80;8.50;;;;;;;11.05;79.39;97788.58;110105;1249;68771;-68
2022/05/12 04:44:34;;;;;;;11.40;9.40;;;;;;;11.17;79.23;97788.95;110137;1248;68823;-68
2022/05/12 04:47:03;;;;;;;13.70;10.80;;;;;;;11.27;78.92;97788.65;110153;1250;59722;-69
2022/05/12 04:49:32;;;;;;;12.20;9.20;;;;;;;11.34;78.49;97791.63;110036;1250;59746;-68
2022/05/12 04:52:02;;;;;;;11.70;9.10;;;;;;;11.44;78.23;97789.85;109996;1249;70724;-69
2022/05/12 04:54:31;;;;;;;8.90;8.00;;;;;;;11.63;78.32;97792.70;110157;1250;68629;-68
2022/05/12 04:57:01;;;;;;;9.40;8.00;;;;;;;11.85;76.93;97790.60;110148;1248;69274;-69
2022/05/12 04:59:33;;;;;;;13.40;9.60;;;;;;;12.11;76.75;97789.96;110028;1250;59707;-68
2022/05/12 05:02:02;;;;;;;10.50;8.70;;;;;;;12.35;74.82;97791.36;109917;1250;59741;-69
2022/05/12 05:04:31;;;;;;;12.50;10.80;;;;;;;12.64;75.03;97790.09;109812;1250;72122;-68
2022/05/12 05:07:02;;;;;;;10.00;8.60;;;;;;;12.86;73.80;97788.93;109835;1250;67431;-69
2022/05/12 05:09:31;;;;;;;10.50;8.20;;;;;;;13.13;71.97;97788.63;109970;1248;68680;-69
2022/05/12 05:12:01;;;;;;;8.30;7.40;;;;;;;13.43;70.14;97788.96;109713;1253;59783;-69
2022/05/12 05:14:31;;;;;;;10.70;7.90;;;;;;;13.82;68.95;97787.45;109938;1250;59618;-69
2022/05/12 05:17:00;;;;;;;10.00;7.90;;;;;;;14.25;68.65;97791.27;109994;1250;70858;-68
2022/05/12 05:19:31;;;;;;;10.50;7.80;;;;;;;14.56;67.61;97790.86;109937;1250;67771;-68
2022/05/12 05:22:00;;;;;;;13.50;9.80;;;;;;;14.88;66.35;97792.95;109935;1250;68827;-69
2022/05/12 05:24:30;;;;;;;19.70;13.00;;;;;;;15.02;64.66;97792.46;110156;1250;59652;-69
2022/05/12 05:26:59;;;;;;;;;;;;;;;15.39;64.32;97795.65;110181;1250;59649;-67
2022/05/12 05:29:28;;;;;;;10.90;7.30;;;;;;;15.75;62.58;97797.98;110107;1250;71737;-70
2022/05/12 05:31:56;;;;;;;9.80;7.60;;;;;;;16.10;61.54;97798.23;109958;1250;68067;-68
2022/05/12 05:34:30;;;;;;;8.40;6.20;;;;;;;16.30;61.33;97796.95;110158;1248;69853;-68
2022/05/12 05:36:59;;;;;;;;;;;;;;;16.77;61.04;97793.38;110219;1249;59685;-70
2022/05/12 05:39:28;;;;;;;7.50;5.00;;;;;;;16.94;59.61;97795.38;109970;1250;59726;-69
2022/05/12 05:42:02;;;;;;;7.60;5.60;;;;;;;17.28;60.44;97798.12;110215;1250;70625;-69
2022/05/12 05:44:32;;;;;;;6.80;6.00;;;;;;;17.41;56.85;97795.69;110049;1250;67767;-70
2022/05/12 05:47:02;;;;;;;8.40;5.40;;;;;;;17.42;56.27;97794.73;109806;1251;68651;-70
2022/05/12 05:49:33;;;;;;;6.50;5.60;;;;;;;17.45;56.05;97796.55;109753;1251;59711;-68
2022/05/12 05:54:50;;;;;;;5.70;5.10;;;;;;;18.18;54.94;97794.66;109933;1251;71606;-69
2022/05/12 05:57:25;;;;;;;7.80;5.50;;;;;;;18.27;54.32;97794.11;109932;1250;68602;-68
2022/05/12 05:59:59;;;;;;;7.00;5.60;;;;;;;18.59;53.56;97799.61;109865;1250;69479;-70
2022/05/12 06:02:28;;;;;;;6.20;5.60;;;;;;;18.71;52.80;97790.95;110080;1250;59719;-70
2022/05/12 06:04:57;;;;;;;7.40;6.70;;;;;;;19.01;52.46;97790.67;109925;1250;59668;-67
2022/05/12 06:07:26;;;;;;;8.40;6.10;;;;;;;19.41;52.53;97788.32;110184;1247;70766;-69
2022/05/12 06:09:55;;;;;;;7.90;5.40;;;;;;;19.48;51.58;97791.00;110022;1248;68698;-71
2022/05/12 06:12:24;;;;;;;6.10;5.50;;;;;;;19.58;52.45;97791.55;110136;1248;69434;-70
2022/05/12 06:14:53;;;;;;;6.70;4.70;;;;;;;20.04;50.59;97789.23;109804;1250;59719;-69
2022/05/12 06:17:22;;;;;;;8.10;5.20;;;;;;;20.55;51.58;97793.64;109684;1251;59738;-69
2022/05/12 06:19:54;;;;;;;6.90;5.10;;;;;;;21.02;49.39;97787.13;110071;1250;72263;-68
2022/05/12 06:22:24;;;;;;;6.40;5.70;;;;;;;21.25;47.23;97785.83;109816;1251;68723;-68
2022/05/12 06:24:56;;;;;;;7.90;5.40;;;;;;;21.19;46.83;97784.02;109830;1251;69419;-69
2022/05/12 06:27:27;;;;;;;6.80;6.10;;;;;;;21.32;47.06;97781.70;109933;1248;59707;-69
2022/05/12 06:29:57;;;;;;;7.80;5.50;;;;;;;21.26;46.59;97778.46;110080;1250;59627;-69
2022/05/12 06:32:27;;;;;;;7.00;5.20;;;;;;;21.37;46.06;97777.95;109944;1249;69598;-69
2022/05/12 06:34:56;;;;;;;6.40;5.80;;;;;;;21.50;45.63;97772.33;109858;1250;67488;-70
2022/05/12 06:37:26;;;;;;;6.30;5.60;;;;;;;21.63;44.87;97777.36;110190;1249;69891;-69
2022/05/12 06:39:55;;;;;;;6.00;5.50;;;;;;;21.93;44.74;97771.30;110150;1249;59743;-69
2022/05/12 06:42:24;;;;;;;7.00;5.70;;;;;;;22.15;43.56;97769.73;110034;1250;59665;-69
2022/05/12 06:44:59;;;;;;;6.60;6.00;;;;;;;22.07;43.31;97773.45;109979;1250;71608;-68
2022/05/12 06:47:31;;;;;;;6.20;5.60;;;;;;;21.61;43.66;97769.47;109906;1250;68710;-70
2022/05/12 06:50:03;;;;;;;5.50;5.00;;;;;;;21.85;44.14;97767.65;109871;1250;69295;-70
2022/05/12 06:52:32;;;;;;;6.20;5.00;;;;;;;22.30;42.67;97769.66;109867;1251;59774;-71
2022/05/12 06:55:01;;;;;;;6.70;4.90;;;;;;;22.29;41.22;97768.33;109891;1250;59706;-69
2022/05/12 06:57:30;;;;;;;6.10;4.00;;;;;;;22.15;41.03;97771.47;109814;1251;71578;-71
2022/05/12 06:59:59;;;;;;;7.30;5.60;;;;;;;22.65;42.00;97775.81;109859;1250;67824;-71
2022/05/12 07:02:28;;;;;;;5.30;4.50;;;;;;;22.85;40.80;97776.89;109879;1250;68766;-70
2022/05/12 07:04:57;;;;;;;4.60;4.20;;;;;;;23.00;40.02;97774.77;109743;1251;59656;-70
2022/05/12 07:07:28;;;;;;;5.60;4.10;;;;;;;23.41;39.56;97774.48;109994;1250;59683;-68
2022/05/12 07:09:57;;;;;;;4.80;4.30;;;;;;;23.11;38.85;97776.69;109969;1250;71427;-69
2022/05/12 07:12:26;;;;;;;5.70;4.90;;;;;;;23.64;39.39;97774.80;109866;1250;68445;-69
2022/05/12 07:14:56;;;;;;;5.50;4.30;;;;;;;23.74;38.61;97771.59;109829;1251;68687;-71
2022/05/12 07:17:25;;;;;;;5.60;4.50;;;;;;;23.88;38.93;97775.20;109933;1250;59746;-69
2022/05/12 07:26:36;;;;;;;5.50;5.00;;;;;;;24.32;37.35;97776.95;109899;1251;68497;-69
2022/05/12 07:28:34;;;;;;;5.00;4.20;;;;;;;24.54;37.34;97772.86;109773;1249;69530;-71
2022/05/12 07:31:05;;;;;;;7.20;4.50;;;;;;;24.83;36.07;97772.75;109899;1249;60044;-71
2022/05/12 07:33:40;;;;;;;7.00;4.80;;;;;;;24.80;35.21;97771.15;109987;1251;59621;-69
2022/05/12 07:36:23;;;;;;;5.80;4.80;;;;;;;24.50;35.88;97772.07;109972;1250;71766;-70
2022/05/12 07:38:55;;;;;;;7.20;4.70;;;;;;;24.35;35.71;97771.43;109961;1250;67678;-70
2022/05/12 07:41:25;;;;;;;5.40;4.50;;;;;;;24.50;35.77;97770.73;109947;1250;68795;-69
2022/05/12 07:43:54;;;;;;;8.40;4.80;;;;;;;24.53;35.51;97771.66;109935;1250;59714;-70
2022/05/12 07:46:28;;;;;;;6.10;5.40;;;;;;;24.49;34.11;97769.40;109902;1250;59629;-70
2022/05/12 07:48:59;;;;;;;4.80;4.00;;;;;;;24.84;34.89;97769.52;109919;1250;70768;-70
2022/05/12 07:51:29;;;;;;;4.60;4.00;;;;;;;25.06;34.69;97765.95;109907;1251;67782;-71
2022/05/12 07:53:58;;;;;;;6.40;5.50;;;;;;;25.36;33.91;97768.02;110011;1249;68619;-69
2022/05/12 07:56:29;;;;;;;7.20;4.70;;;;;;;25.80;33.37;97764.45;110016;1250;59631;-70
2022/05/12 07:58:59;;;;;;;4.50;3.50;;;;;;;25.92;32.65;97765.52;109993;1249;59687;-71
2022/05/12 08:01:28;;;;;;;4.30;3.60;;;;;;;26.20;33.66;97766.92;109833;1249;69802;-71
2022/05/12 08:03:57;;;;;;;;;;;;;;;26.60;32.83;97770.74;109963;1250;67943;-69
2022/05/12 08:06:26;;;;;;;8.00;6.30;;;;;;;26.76;32.53;97769.31;109931;1250;68694;-69
2022/05/12 08:08:56;;;;;;;5.50;4.50;;;;;;;26.94;32.06;97769.85;109923;1251;59733;-70
2022/05/12 08:11:25;;;;;;;7.50;5.10;;;;;;;26.89;31.35;97768.69;109960;1250;59637;-70
2022/05/12 08:13:54;;;;;;;4.90;4.20;;;;;;;26.48;31.92;97766.81;109900;1250;71387;-70
2022/05/12 08:16:23;;;;;;;7.20;5.00;;;;;;;25.99;32.85;97761.05;109802;1251;68627;-71
2022/05/12 08:18:53;;;;;;;5.70;4.40;;;;;;;25.84;32.86;97762.52;109953;1250;68570;-69
2022/05/12 08:21:23;;;;;;;5.20;4.40;;;;;;;25.58;33.36;97758.19;109922;1251;59675;-71
2022/05/12 08:23:53;;;;;;;4.80;4.20;;;;;;;25.59;34.02;97755.88;109900;1250;59674;-71
2022/05/12 08:26:23;;;;;;;9.20;5.30;;;;;;;25.39;34.02;97759.48;109935;1250;71822;-70
2022/05/12 08:28:52;;;;;;;6.00;3.90;;;;;;;25.39;33.85;97759.09;109980;1250;68530;-70
2022/05/12 08:31:27;;;;;;;5.10;4.20;;;;;;;25.64;33.91;97757.39;109937;1250;68647;-72
2022/05/12 08:33:58;;;;;;;5.70;3.80;;;;;;;25.74;33.18;97756.63;109956;1250;59728;-71
2022/05/12 08:36:27;;;;;;;5.40;4.00;;;;;;;25.91;33.33;97762.16;109973;1250;59698;-71
2022/05/12 08:38:57;;;;;;;6.00;4.70;;;;;;;26.39;33.50;97761.30;109948;1250;70893;-71
2022/05/12 08:41:46;;;;;;;6.00;4.90;;;;;;;26.86;33.26;97760.23;109961;1250;68598;-72
2022/05/12 08:44:21;;;;;;;5.60;4.50;;;;;;;27.38;33.07;97757.80;109897;1250;69438;-70
2022/05/12 08:46:57;;;;;;;7.10;4.90;;;;;;;27.62;31.28;97755.43;109971;1250;59684;-69
2022/05/12 08:49:42;;;;;;;5.60;4.00;;;;;;;27.83;31.89;97759.56;110060;1250;59685;-71
2022/05/12 08:52:31;;;;;;;4.30;3.60;;;;;;;27.74;31.14;97758.21;109808;1251;71727;-70
2022/05/12 08:55:08;;;;;;;5.70;3.40;;;;;;;27.95;29.68;97756.64;109812;1250;68687;-71
2022/05/12 08:57:46;;;;;;;4.20;3.80;;;;;;;27.80;30.25;97760.09;110001;1250;69543;-72
2022/05/12 09:00:16;;;;;;;4.70;4.10;;;;;;;28.22;30.68;97757.64;109958;1250;59665;-71
2022/05/12 09:02:51;;;;;;;6.60;4.70;;;;;;;28.65;29.73;97755.38;109997;1250;59742;-71
2022/05/12 09:05:26;;;;;;;6.90;5.80;;;;;;;28.75;29.72;97756.92;109993;1250;71482;-71
2022/05/12 09:08:05;;;;;;;4.30;3.90;;;;;;;28.75;29.15;97758.46;109936;1250;67800;-71
2022/05/12 09:11:14;;;;;;;4.90;3.60;;;;;;;28.84;28.50;97756.98;109974;1250;69460;-71
2022/05/12 09:13:48;;;;;;;;;;;;;;;28.84;28.53;97760.58;109682;1250;59661;-69
2022/05/12 09:16:23;;;;;;;6.50;4.60;;;;;;;28.45;28.87;97756.77;109829;1250;59692;-71
2022/05/12 09:18:53;;;;;;;5.90;4.20;;;;;;;28.49;28.51;97757.61;109997;1250;71218;-71
2022/05/12 09:21:27;;;;;;;4.90;4.30;;;;;;;28.25;29.03;97755.20;109876;1250;68638;-72
2022/05/12 09:23:57;;;;;;;5.50;4.40;;;;;;;28.36;29.50;97755.58;109910;1250;69536;-71
2022/05/12 09:26:35;;;;;;;6.60;4.00;;;;;;;28.05;29.44;97748.61;109890;1250;59783;-75
2022/05/12 09:29:15;;;;;;;6.00;4.10;;;;;;;28.47;29.08;97750.48;109904;1250;59679;-71
2022/05/12 09:31:48;;;;;;;4.40;3.60;;;;;;;28.62;28.92;97752.02;109861;1250;70657;-72
2022/05/12 09:34:29;;;;;;;5.30;3.70;;;;;;;28.64;28.35;97749.87;109901;1250;67949;-76
2022/05/12 09:37:28;;;;;;;5.20;4.10;;;;;;;28.24;28.03;97748.48;109873;1251;68889;-72
2022/05/12 09:40:15;;;;;;;5.10;3.60;;;;;;;28.25;28.39;97747.98;109647;1253;59762;-72
2022/05/12 09:42:49;;;;;;;4.80;4.00;;;;;;;28.49;27.74;97747.44;109700;1253;60058;-71
2022/05/12 09:45:25;;;;;;;4.10;3.40;;;;;;;28.73;27.90;97746.19;109731;1252;71593;-71
2022/05/12 09:48:07;;;;;;;4.00;3.50;;;;;;;28.66;28.04;97740.77;109684;1254;69123;-72
2022/05/12 09:50:41;;;;;;;4.10;3.30;;;;;;;28.60;28.08;97737.35;109628;1253;68865;-71
2022/05/12 09:53:11;;;;;;;;;;;;;;;29.04;27.09;97739.27;109553;1253;59695;-71
2022/05/12 09:55:55;;;;;;;4.10;3.40;;;;;;;29.19;26.68;97737.10;109636;1253;59740;-71
2022/05/12 09:58:34;;;;;;;4.30;2.60;;;;;;;29.29;26.11;97733.97;109265;1254;546165;-73
2022/05/12 10:01:20;;;;;;;6.80;3.90;;;;;;;29.79;25.33;97727.88;109616;1253;67624;-71
2022/05/12 10:07:53;;;;;;;3.90;3.50;;;;;;;29.76;24.90;97727.59;109599;1253;59811;-71
2022/05/12 10:10:19;;;;;;;4.50;4.00;;;;;;;29.13;26.46;97722.16;109620;1253;59727;-71
2022/05/12 10:12:58;;;;;;;4.40;2.90;;;;;;;28.59;26.68;97724.80;109637;1253;71672;-73
2022/05/12 10:15:31;;;;;;;9.30;5.40;;;;;;;28.90;26.39;97717.50;109644;1254;67297;-71
2022/05/12 10:18:16;;;;;;;3.50;3.00;;;;;;;29.17;26.80;97709.71;109906;1250;67763;-71
2022/05/12 10:20:50;;;;;;;5.00;4.20;;;;;;;29.80;25.60;97710.77;109885;1250;59688;-72
2022/05/12 10:23:47;;;;;;;5.60;3.70;;;;;;;29.39;25.51;97711.55;109772;1250;59769;-71
2022/05/12 10:26:42;;;;;;;8.20;4.40;;;;;;;29.51;25.18;97710.84;109937;1250;71576;-73
2022/05/12 10:29:56;;;;;;;5.90;5.30;;;;;;;29.68;24.89;97702.92;109897;1250;68410;-72
2022/05/12 10:32:48;;;;;;;8.80;5.10;;;;;;;29.55;25.05;97697.17;109685;1250;68702;-71
2022/05/12 10:35:35;;;;;;;8.40;5.40;;;;;;;28.95;25.18;97700.88;109991;1249;59693;-71
2022/05/12 10:38:09;;;;;;;7.90;5.10;;;;;;;28.87;25.93;97692.95;110057;1250;59693;-71
2022/05/12 10:40:43;;;;;;;7.20;5.90;;;;;;;28.73;26.16;97696.52;110005;1250;71356;-72
2022/05/12 10:43:21;;;;;;;3.60;3.10;;;;;;;28.72;27.14;97688.50;109999;1250;68193;-71
2022/05/12 10:46:14;;;;;;;4.60;3.00;;;;;;;29.29;24.24;97687.93;109899;1250;68725;-71
2022/05/12 10:48:56;;;;;;;4.40;3.50;;;;;;;29.67;23.92;97680.27;109812;1250;59699;-72
2022/05/12 10:51:53;;;;;;;7.50;4.30;;;;;;;30.10;24.27;97679.14;109927;1249;59688;-72
2022/05/12 10:54:59;;;;;;;4.80;3.30;;;;;;;30.42;24.08;97683.52;109963;1250;70558;-71
2022/05/12 10:57:37;;;;;;;4.50;3.30;;;;;;;30.42;22.98;97681.33;109933;1250;68757;-71
2022/05/12 11:00:29;;;;;;;6.00;3.80;;;;;;;30.41;22.24;97676.97;109969;1249;69689;-71
2022/05/12 11:03:14;;;;;;;3.50;2.80;;;;;;;29.68;22.67;97672.75;110088;1250;59763;-71
2022/05/12 11:05:47;;;;;;;5.20;3.40;;;;;;;30.15;24.25;97668.36;110173;1249;59661;-71
2022/05/12 11:08:25;;;;;;;3.50;2.90;;;;;;;30.45;24.21;97666.34;110036;1250;71548;-72
2022/05/12 11:10:58;;;;;;;4.80;3.40;;;;;;;30.94;24.06;97668.01;110167;1250;68605;-70
2022/05/12 11:13:34;;;;;;;4.70;2.60;;;;;;;31.31;23.78;97661.42;110148;1249;69439;-70
2022/05/12 11:16:15;;;;;;;4.50;3.10;;;;;;;31.65;23.23;97663.37;110013;1250;59699;-72
2022/05/12 11:18:51;;;;;;;4.10;2.60;;;;;;;32.06;23.12;97659.84;109884;1250;59734;-71
2022/05/12 11:21:28;;;;;;;5.00;3.00;;;;;;;32.23;22.36;97667.30;109978;1250;70598;-73
2022/05/12 11:24:11;;;;;;;4.90;2.90;;;;;;;32.24;21.88;97661.14;110166;1250;68361;-72
2022/05/12 11:27:01;;;;;;;4.20;3.10;;;;;;;32.59;20.50;97659.37;110143;1249;68689;-71
2022/05/12 11:29:48;;;;;;;3.20;2.70;;;;;;;32.18;20.16;97653.09;109943;1250;59700;-72
2022/05/12 11:32:41;;;;;;;4.20;3.60;;;;;;;32.07;20.50;97644.71;109950;1250;59679;-72
2022/05/12 11:35:28;;;;;;;4.80;3.00;;;;;;;31.88;21.08;97646.02;110146;1248;70817;-71
2022/05/12 11:38:05;;;;;;;4.80;3.10;;;;;;;30.90;22.46;97638.65;110042;1249;68652;-71
2022/05/12 11:40:44;;;;;;;3.30;2.90;;;;;;;31.42;22.91;97635.85;110193;1248;69481;-73
2022/05/12 11:46:58;;;;;;;3.00;2.50;;;;;;;31.15;21.22;97626.20;110169;1249;59673;-73
2022/05/12 11:50:00;;;;;;;5.30;3.60;;;;;;;30.45;23.17;97625.14;110158;1248;70838;-71
2022/05/12 11:53:03;;;;;;;4.40;3.80;;;;;;;29.68;23.77;97625.87;110147;1248;67971;-71
2022/05/12 11:55:35;;;;;;;6.70;4.00;;;;;;;29.48;23.94;97619.23;110196;1248;68628;-72
2022/05/12 11:58:11;;;;;;;4.30;3.90;;;;;;;28.76;24.30;97615.67;110140;1249;59818;-72
2022/05/12 12:00:44;;;;;;;3.40;2.50;;;;;;;28.55;25.01;97610.30;110195;1249;59679;-70
2022/05/12 12:03:22;;;;;;;3.20;2.90;;;;;;;28.93;25.44;97611.56;110155;1249;69981;-72
2022/05/12 12:05:50;;;;;;;4.40;2.40;;;;;;;29.41;25.20;97605.90;109969;1249;68796;-72
2022/05/12 12:08:31;;;;;;;4.70;3.00;;;;;;;29.81;24.86;97605.45;110158;1249;68456;-72
2022/05/12 12:11:17;;;;;;;6.70;3.50;;;;;;;29.85;23.97;97603.34;110136;1249;59759;-72
2022/05/12 12:13:58;;;;;;;3.90;2.80;;;;;;;29.42;24.15;97597.94;110171;1248;59682;-73
2022/05/12 12:16:48;;;;;;;4.30;2.70;;;;;;;29.72;23.91;97592.58;109865;1250;71677;-69
2022/05/12 12:19:49;;;;;;;5.10;2.80;;;;;;;29.83;23.19;97590.05;110028;1250;67804;-71